Time;durP1;ratioP1;P1;durP2;ratioP2;P2;SDS_P1;SDS_P2;PMS_P1;PMS_P2;Temp;Humidity;BMP_temperature;BMP_pressure;BME280_temperature;BME280_humidity;BME280_pressure;Samples;Min_cycle;Max_cycle;Signal;HPM_P1;HPM_P2
2022/03/16 00:00:32;;;;;;;;;;;;;;;-1.49;89.91;100719.52;1781501;80;20273;-65
2022/03/16 00:03:02;;;;;;;;;;;;;;;-1.51;89.70;100723.46;1772617;80;20136;-67
2022/03/16 00:05:33;;;;;;;;;;;;;;;-1.54;89.65;100719.84;1766446;81;20467;-68
2022/03/16 00:08:16;;;;;;;;;;;;;;;-1.57;89.78;100717.04;1766231;81;20101;-68
2022/03/16 00:10:36;;;;;;;;;;;;;;;-1.59;89.82;100708.86;1763477;81;21303;-69
2022/03/16 00:13:07;;;;;;;;;;;;;;;-1.62;89.42;100717.35;1766232;81;20120;-67
2022/03/16 00:15:38;;;;;;;;;;;;;;;-1.64;89.38;100716.21;1766140;81;20092;-69
2022/03/16 00:18:12;;;;;;;;;;;;;;;-1.67;89.21;100721.49;1765071;81;20420;-68
2022/03/16 00:20:44;;;;;;;;;;;;;;;-1.68;89.08;100717.66;1766604;80;20096;-68
2022/03/16 00:23:10;;;;;;;;;;;;;;;-1.70;89.25;100717.87;1774688;79;21142;-68
2022/03/16 00:25:50;;;;;;;;;;;;;;;-1.70;88.87;100714.34;1763731;80;20171;-69
2022/03/16 00:28:07;;;;;;;;;;;;;;;-1.72;88.53;100713.73;1786285;80;20108;-71
2022/03/16 00:30:41;;;;;;;;;;;;;;;-1.74;88.47;100711.79;1763333;80;20104;-69
2022/03/16 00:33:11;;;;;;;;;;;;;;;-1.79;88.19;100709.72;1760938;80;20349;-69
2022/03/16 00:35:39;;;;;;;;;;;;;;;-1.80;88.92;100707.23;1781393;80;21125;-68
2022/03/16 00:38:09;;;;;;;;;;;;;;;-1.81;88.33;100697.50;1792145;80;20407;-68
2022/03/16 00:40:40;;;;;;;;;;;;;;;-1.84;87.96;100705.98;1786266;80;20115;-69
2022/03/16 00:43:09;;;;;;;;;;;;;;;-1.88;87.75;100708.27;1778393;80;20077;-65
2022/03/16 00:45:43;;;;;;;;;;;;;;;-1.91;87.50;100702.46;1760683;81;20118;-65
2022/03/16 00:48:09;;;;;;;;;;;;;;;-1.94;87.90;100702.36;1736808;82;21171;-67
2022/03/16 00:50:41;;;;;;;;;;;;;;;-1.92;88.12;100700.80;1759980;81;20118;-66
2022/03/16 00:53:13;;;;;;;;;;;;;;;-1.92;87.37;100702.15;1772736;80;20490;-63
2022/03/16 00:55:43;;;;;;;;;;;;;;;-1.94;87.08;100692.11;1791834;80;20092;-66
2022/03/16 00:58:19;;;;;;;;;;;;;;;-1.95;86.97;100695.83;1792038;80;20084;-67
2022/03/16 01:00:48;;;;;;;;;;;;;;;-1.95;86.98;100705.25;1792226;80;21312;-66
2022/03/16 01:05:55;;;;;;;;;;;;;;;-1.91;86.81;100711.87;1760069;80;20124;-66
2022/03/16 01:08:25;;;;;;;;;;;;;;;-1.90;86.74;100703.60;1790633;80;20127;-65
2022/03/16 01:10:53;;;;;;;;;;;;;;;-1.89;86.63;100701.22;1792202;80;20159;-67
2022/03/16 01:13:22;;;;;;;;;;;;;;;-1.86;86.68;100704.02;1792418;80;21981;-67
2022/03/16 01:15:52;;;;;;;;;;;;;;;-1.86;87.35;100701.33;1792349;80;20095;-67
2022/03/16 01:18:22;;;;;;;;;;;;;;;-1.82;87.46;100701.23;1786671;80;20104;-67
2022/03/16 01:20:58;;;;;;;;;;;;;;;-1.82;87.26;100703.40;1765032;80;20423;-67
2022/03/16 01:23:31;;;;;;;;;;;;;;;-1.83;87.15;100704.44;1765659;80;20124;-67
2022/03/16 01:25:57;;;;;;;;;;;;;;;-1.84;87.11;100693.88;1791706;80;21156;-66
2022/03/16 01:28:29;;;;;;;;;;;;;;;-1.86;87.35;100695.95;1791814;80;20179;-67
2022/03/16 01:31:02;;;;;;;;;;;;;;;-1.88;88.05;100690.77;1732777;81;20111;-67
2022/03/16 01:33:33;;;;;;;;;;;;;;;-1.90;87.60;100693.35;1764687;79;20325;-66
2022/03/16 01:35:59;;;;;;;;;;;;;;;-1.93;87.34;100687.03;1791525;79;20078;-66
2022/03/16 01:38:29;;;;;;;;;;;;;;;-1.98;87.37;100682.27;1761961;80;20116;-66
2022/03/16 01:41:01;;;;;;;;;;;;;;;-2.01;87.37;100690.75;1762200;80;20428;-66
2022/03/16 01:43:30;;;;;;;;;;;;;;;-2.04;87.77;100695.20;1762602;80;20435;-66
2022/03/16 01:45:59;;;;;;;;;;;;;;;-2.05;87.37;100690.34;1785127;80;20096;-66
2022/03/16 01:48:26;;;;;;;;;;;;;;;-2.06;87.01;100694.06;1785220;80;20120;-66
2022/03/16 01:50:57;;;;;;;;;;;;;;;-2.08;86.52;100689.41;1785128;80;21232;-66
2022/03/16 01:53:32;;;;;;;;;;;;;;;-2.11;85.76;100693.02;1785070;80;20141;-66
2022/03/16 01:56:04;;;;;;;;;;;;;;;-2.15;85.28;100695.29;1785268;80;20123;-66
2022/03/16 01:58:35;;;;;;;;;;;;;;;-2.17;85.11;100708.12;1784734;80;20153;-66
2022/03/16 02:01:14;;;;;;;;;;;;;;;-2.18;84.67;100706.45;1785171;80;20116;-66
2022/03/16 02:03:39;;;;;;;;;;;;;;;-2.21;84.34;100712.25;1783965;80;21216;-69
2022/03/16 02:06:14;;;;;;;;;;;;;;;-2.23;84.19;100702.20;1784301;80;20415;-69
2022/03/16 02:08:45;;;;;;;;;;;;;;;-2.24;83.67;100705.93;1783850;80;20116;-69
2022/03/16 02:11:16;;;;;;;;;;;;;;;-2.25;83.74;100696.72;1762386;80;20459;-69
2022/03/16 02:13:52;;;;;;;;;;;;;;;-2.26;83.22;100712.03;1785131;80;20120;-70
2022/03/16 02:16:25;;;;;;;;;;;;;;;-2.28;82.80;100706.54;1762030;80;20155;-69
2022/03/16 02:19:09;;;;;;;;;;;;;;;-2.31;82.49;100709.12;1785269;80;20443;-69
2022/03/16 02:21:29;;;;;;;;;;;;;;;-2.36;82.24;100699.00;1779699;80;20455;-69
2022/03/16 02:24:04;;;;;;;;;;;;;;;-2.39;82.39;100698.58;1783855;80;20116;-68
2022/03/16 02:26:35;;;;;;;;;;;;;;;-2.43;81.91;100692.77;1761477;80;20455;-69
2022/03/16 02:29:02;;;;;;;;;;;;;;;-2.45;81.89;100694.84;1785215;80;21154;-68
2022/03/16 02:31:31;;;;;;;;;;;;;;;-2.47;81.82;100694.73;1785057;80;20077;-68
2022/03/16 02:34:07;;;;;;;;;;;;;;;-2.50;81.86;100697.31;1785819;80;20119;-69
2022/03/16 02:36:39;;;;;;;;;;;;;;;-2.52;82.30;100701.23;1758353;80;20068;-69
2022/03/16 02:39:09;;;;;;;;;;;;;;;-2.54;82.12;100703.29;1788152;80;20148;-69
2022/03/16 02:41:52;;;;;;;;;;;;;;;-2.55;81.95;100700.28;1787901;80;21247;-68
2022/03/16 02:44:16;;;;;;;;;;;;;;;-2.58;82.18;100700.69;1777874;80;20463;-66
2022/03/16 02:46:44;;;;;;;;;;;;;;;-2.60;82.10;100707.61;1788198;80;20072;-66
2022/03/16 02:49:17;;;;;;;;;;;;;;;-2.61;82.20;100703.27;1788245;79;20080;-66
2022/03/16 02:51:47;;;;;;;;;;;;;;;-2.62;82.24;100694.89;1760722;80;20119;-67
2022/03/16 02:54:15;;;;;;;;;;;;;;;-2.62;82.42;100701.61;1788231;79;21214;-66
2022/03/16 02:56:47;;;;;;;;;;;;;;;-2.63;82.28;100695.09;1788296;79;20463;-65
2022/03/16 02:59:11;;;;;;;;;;;;;;;-2.64;82.06;100698.29;1786815;80;20431;-69
2022/03/16 03:01:41;;;;;;;;;;;;;;;-2.63;82.46;100696.44;1774736;80;20144;-68
2022/03/16 03:04:10;;;;;;;;;;;;;;;-2.63;82.42;100694.58;1766356;80;20115;-68
2022/03/16 03:06:44;;;;;;;;;;;;;;;-2.63;82.23;100688.37;1795453;80;21141;-67
2022/03/16 03:09:10;;;;;;;;;;;;;;;-2.64;82.10;100692.92;1794627;79;20080;-67
2022/03/16 03:11:44;;;;;;;;;;;;;;;-2.63;82.17;100692.40;1795064;79;20411;-67
2022/03/16 03:14:14;;;;;;;;;;;;;;;-2.63;81.85;100693.23;1795475;79;20104;-65
2022/03/16 03:16:47;;;;;;;;;;;;;;;-2.62;82.14;100692.72;1736662;81;20149;-65
2022/03/16 03:19:25;;;;;;;;;;;;;;;-2.62;81.01;100695.41;1763573;81;21163;-65
2022/03/16 03:21:45;;;;;;;;;;;;;;;-2.63;81.12;100696.44;1761448;81;20110;-65
2022/03/16 03:24:17;;;;;;;;;;;;;;;-2.65;81.11;100692.60;1763581;81;20118;-65
2022/03/16 03:26:49;;;;;;;;;;;;;;;-2.64;81.25;100693.43;1764007;81;20134;-65
2022/03/16 03:29:18;;;;;;;;;;;;;;;-2.63;81.33;100696.44;1763242;81;20421;-66
2022/03/16 03:31:54;;;;;;;;;;;;;;;-2.63;80.71;100696.44;1738135;80;21066;-66
2022/03/16 03:34:21;;;;;;;;;;;;;;;-2.66;80.70;100694.46;1763966;80;20086;-67
2022/03/16 03:36:49;;;;;;;;;;;;;;;-2.67;80.47;100694.14;1814441;79;20090;-66
2022/03/16 03:39:23;;;;;;;;;;;;;;;-2.70;80.10;100691.86;1814883;79;20071;-67
2022/03/16 03:41:52;;;;;;;;;;;;;;;-2.75;80.40;100692.15;1816272;77;20111;-66
2022/03/16 03:44:23;;;;;;;;;;;;;;;-2.78;80.38;100689.34;1840826;77;21200;-66
2022/03/16 03:46:51;;;;;;;;;;;;;;;-2.79;80.18;100690.89;1843699;77;20119;-66
2022/03/16 03:49:23;;;;;;;;;;;;;;;-2.82;80.12;100689.44;1819447;77;20163;-66
2022/03/16 03:51:51;;;;;;;;;;;;;;;-2.84;80.52;100687.46;1839711;77;20099;-66
2022/03/16 03:54:22;;;;;;;;;;;;;;;-2.83;80.57;100691.81;1848788;77;20080;-67
2022/03/16 03:56:52;;;;;;;;;;;;;;;-2.83;80.42;100690.46;1847964;77;21952;-66
2022/03/16 03:59:21;;;;;;;;;;;;;;;-2.82;80.80;100685.41;1848657;77;20095;-67
2022/03/16 04:01:53;;;;;;;;;;;;;;;-2.81;80.33;100687.06;1843986;77;21156;-66
2022/03/16 04:04:23;;;;;;;;;;;;;;;-2.79;80.39;100688.20;1848226;77;20127;-66
2022/03/16 04:06:52;;;;;;;;;;;;;;;-2.78;80.72;100688.00;1848732;77;20435;-66
2022/03/16 04:09:22;;;;;;;;;;;;;;;-2.75;80.69;100686.26;1848718;77;21081;-66
2022/03/16 04:11:55;;;;;;;;;;;;;;;-2.70;80.45;100692.38;1848695;77;20108;-66
2022/03/16 04:14:25;;;;;;;;;;;;;;;-2.70;80.20;100688.34;1847828;77;20107;-66
2022/03/16 04:16:53;;;;;;;;;;;;;;;-2.71;79.84;100692.06;1848620;77;20088;-66
2022/03/16 04:19:26;;;;;;;;;;;;;;;-2.70;80.59;100689.69;1848992;77;20434;-66
2022/03/16 04:21:57;;;;;;;;;;;;;;;-2.70;79.99;100687.00;1848076;77;21253;-66
2022/03/16 04:24:24;;;;;;;;;;;;;;;-2.73;79.30;100693.61;1847542;77;20080;-66
2022/03/16 04:26:54;;;;;;;;;;;;;;;-2.76;79.49;100684.59;1848769;77;20152;-66
2022/03/16 04:29:27;;;;;;;;;;;;;;;-2.74;80.19;100691.12;1848976;77;20107;-66
2022/03/16 04:31:55;;;;;;;;;;;;;;;-2.72;79.24;100694.44;1815172;79;20090;-72
2022/03/16 04:34:22;;;;;;;;;;;;;;;-2.77;78.91;100694.20;1815064;78;21152;-72
2022/03/16 04:36:49;;;;;;;;;;;;;;;-2.83;78.69;100693.15;1815069;79;20422;-66
2022/03/16 04:39:16;;;;;;;;;;;;;;;-2.86;79.05;100695.41;1815031;79;20078;-66
2022/03/16 04:41:43;;;;;;;;;;;;;;;-2.89;78.76;100699.88;1814985;79;20082;-68
2022/03/16 04:44:12;;;;;;;;;;;;;;;-2.91;79.63;100689.32;1812192;79;20139;-67
2022/03/16 04:46:39;;;;;;;;;;;;;;;-2.89;79.17;100695.84;1786590;80;21136;-67
2022/03/16 04:49:06;;;;;;;;;;;;;;;-2.89;78.92;100695.84;1787937;80;20084;-67
2022/03/16 04:51:35;;;;;;;;;;;;;;;-2.89;78.65;100706.59;1790159;80;20079;-66
2022/03/16 04:54:02;;;;;;;;;;;;;;;-2.88;78.94;100698.81;1785673;80;20147;-66
2022/03/16 04:56:31;;;;;;;;;;;;;;;-2.88;78.76;100700.16;1787005;80;20426;-67
2022/03/16 04:58:59;;;;;;;;;;;;;;;-2.87;78.67;100697.78;1785935;80;21104;-67
2022/03/16 05:01:26;;;;;;;;;;;;;;;-2.87;78.59;100697.27;1787494;80;20120;-67
2022/03/16 05:03:53;;;;;;;;;;;;;;;-2.86;78.38;100705.64;1788904;80;20168;-67
2022/03/16 05:06:21;;;;;;;;;;;;;;;-2.86;78.26;100703.47;1785556;80;20096;-67
2022/03/16 05:08:50;;;;;;;;;;;;;;;-2.86;78.55;100701.61;1785895;80;20124;-65
2022/03/16 05:11:21;;;;;;;;;;;;;;;-2.87;78.09;100703.16;1786929;80;21134;-66
2022/03/16 05:13:47;;;;;;;;;;;;;;;-2.85;78.18;100705.95;1784998;80;20085;-66
2022/03/16 05:16:16;;;;;;;;;;;;;;;-2.86;77.52;100708.33;1786151;80;20116;-66
2022/03/16 05:18:45;;;;;;;;;;;;;;;-2.86;77.37;100704.30;1789433;80;20160;-66
2022/03/16 05:21:12;;;;;;;;;;;;;;;-2.86;76.79;100715.05;1783053;80;20072;-66
2022/03/16 05:23:40;;;;;;;;;;;;;;;-2.88;76.54;100721.14;1786089;80;21138;-66
2022/03/16 05:26:08;;;;;;;;;;;;;;;-2.86;76.95;100729.00;1787005;80;20080;-67
2022/03/16 05:28:36;;;;;;;;;;;;;;;-2.84;76.73;100729.12;1786922;80;20100;-66
2022/03/16 05:31:04;;;;;;;;;;;;;;;-2.80;77.04;100731.72;1787080;80;20494;-67
2022/03/16 05:33:31;;;;;;;;;;;;;;;-2.75;77.50;100728.44;1785098;80;20161;-67
2022/03/16 05:35:59;;;;;;;;;;;;;;;-2.69;76.59;100741.08;1796590;79;21205;-66
2022/03/16 05:38:27;;;;;;;;;;;;;;;-2.66;75.79;100737.47;1791411;79;20449;-68
2022/03/16 05:40:54;;;;;;;;;;;;;;;-2.63;74.93;100736.24;1792618;79;20249;-68
2022/03/16 05:43:24;;;;;;;;;;;;;;;-2.59;75.67;100735.33;1796199;79;20127;-66
2022/03/16 05:45:52;;;;;;;;;;;;;;;-2.55;75.03;100731.20;1788100;79;20116;-65
2022/03/16 05:48:19;;;;;;;;;;;;;;;-2.51;74.67;100746.73;1799439;79;21155;-65
2022/03/16 05:50:48;;;;;;;;;;;;;;;-2.49;74.93;100748.70;1795523;79;20079;-73
2022/03/16 05:53:15;;;;;;;;;;;;;;;-2.43;74.25;100744.39;1791229;79;20108;-67
2022/03/16 05:55:42;;;;;;;;;;;;;;;-2.39;74.26;100755.05;1786059;80;20104;-67
2022/03/16 05:58:10;;;;;;;;;;;;;;;-2.36;73.94;100755.48;1785992;80;20081;-67
2022/03/16 06:00:40;;;;;;;;;;;;;;;-2.33;73.46;100760.97;1785966;80;21138;-67
2022/03/16 06:03:07;;;;;;;;;;;;;;;-2.32;73.80;100755.91;1786017;80;20096;-67
2022/03/16 06:05:34;;;;;;;;;;;;;;;-2.31;73.49;100753.50;1785948;80;20089;-67
2022/03/16 06:08:01;;;;;;;;;;;;;;;-2.32;73.73;100753.22;1784797;80;20161;-67
2022/03/16 06:10:30;;;;;;;;;;;;;;;-2.27;73.86;100760.13;1785398;80;20139;-68
2022/03/16 06:13:01;;;;;;;;;;;;;;;-2.24;72.45;100762.94;1785380;80;20096;-69
2022/03/16 06:15:31;;;;;;;;;;;;;;;-2.23;72.80;100771.31;1785227;80;20081;-68
2022/03/16 06:17:58;;;;;;;;;;;;;;;-2.17;72.75;100775.38;1785220;80;20137;-67
2022/03/16 06:20:26;;;;;;;;;;;;;;;-2.09;72.27;100777.05;1785018;80;20438;-66
2022/03/16 06:22:55;;;;;;;;;;;;;;;-2.03;71.56;100769.00;1785399;80;20203;-66
2022/03/16 06:25:24;;;;;;;;;;;;;;;-1.97;71.62;100779.47;1785400;80;21871;-69
2022/03/16 06:27:50;;;;;;;;;;;;;;;-1.90;70.92;100779.48;1785614;80;20081;-69
2022/03/16 06:30:18;;;;;;;;;;;;;;;-1.83;71.08;100783.02;1785324;80;20141;-68
2022/03/16 06:32:47;;;;;;;;;;;;;;;-1.79;68.86;100782.92;1785236;80;20149;-68
2022/03/16 06:35:15;;;;;;;;;;;;;;;-1.76;69.04;100782.50;1786108;80;20462;-68
2022/03/16 06:37:43;;;;;;;;;;;;;;;-1.68;68.71;100784.97;1788583;80;21236;-71
2022/03/16 06:40:11;;;;;;;;;;;;;;;-1.60;69.38;100785.29;1788540;80;20132;-70
2022/03/16 06:42:55;;;;;;;;;;;;;;;-1.46;69.34;100793.69;1788595;80;20096;-71
2022/03/16 06:45:22;;;;;;;;;;;;;;;-1.29;67.84;100794.94;1788872;80;20249;-71
2022/03/16 06:47:56;;;;;;;;;;;;;;;-1.10;67.95;100795.94;1788562;80;20466;-71
2022/03/16 06:50:23;;;;;;;;;;;;;;;-1.01;66.32;100796.03;1788716;80;21123;-70
2022/03/16 06:52:53;;;;;;;;;;;;;;;-1.01;65.14;100791.47;1788598;80;20457;-69
2022/03/16 06:55:20;;;;;;;;;;;;;;;-1.04;64.57;100804.53;1789079;80;20160;-70
2022/03/16 06:57:48;;;;;;;;;;;;;;;-1.07;65.57;100803.08;1789234;80;20084;-72
2022/03/16 07:00:15;;;;;;;;;;;;;;;-1.04;64.96;100804.02;1787663;80;20116;-67
2022/03/16 07:02:52;;;;;;;;;;;;;;;-1.04;64.50;100806.71;1789142;80;21283;-66
2022/03/16 07:05:20;;;;;;;;;;;;;;;-1.02;64.53;100810.55;1789268;80;20093;-66
2022/03/16 07:07:47;;;;;;;;;;;;;;;-1.01;65.13;100807.64;1789101;80;20096;-66
2022/03/16 07:10:14;;;;;;;;;;;;;;;-0.96;65.23;100812.92;1789176;80;20077;-66
2022/03/16 07:12:41;;;;;;;;;;;;;;;-0.95;64.40;100807.32;1787914;80;20120;-66
2022/03/16 07:15:09;;;;;;;;;;;;;;;-0.99;64.42;100803.39;1788623;80;21237;-67
2022/03/16 07:17:38;;;;;;;;;;;;;;;-1.00;65.09;100805.25;1789216;80;38505;-67
2022/03/16 07:20:06;;;;;;;;;;;;;;;-0.94;64.75;100806.80;1789313;80;20136;-65
2022/03/16 07:22:35;;;;;;;;;;;;;;;-0.89;65.22;100810.53;1789137;80;20068;-68
2022/03/16 07:25:04;;;;;;;;;;;;;;;-0.89;63.97;100806.48;1789201;80;20140;-68
2022/03/16 07:27:32;;;;;;;;;;;;;;;-0.89;64.08;100813.74;1789318;80;21108;-76
2022/03/16 07:29:59;;;;;;;;;;;;;;;-0.82;64.60;100802.43;1789158;80;20116;-57
2022/03/16 07:32:25;;;;;;;;;;;;;;;-0.62;64.43;100798.34;1789308;80;20407;-82
2022/03/16 07:34:52;;;;;;;;;;;;;;;-0.35;63.38;100806.63;1789099;80;20100;-65
2022/03/16 07:37:19;;;;;;;;;;;;;;;-0.03;64.26;100803.47;1785952;80;20431;-63
2022/03/16 07:39:46;;;;;;;;;;;;;;;0.36;61.85;100796.16;1785889;80;20812;-62
2022/03/16 07:42:15;;;;;;;;;;;;;;;0.63;60.30;100794.88;1785898;80;20096;-63
2022/03/16 07:44:42;;;;;;;;;;;;;;;0.91;60.37;100794.44;1785695;79;20414;-70
2022/03/16 07:47:09;;;;;;;;;;;;;;;1.31;58.59;100784.86;1786333;79;20131;-69
2022/03/16 07:49:35;;;;;;;;;;;;;;;1.69;55.53;100782.45;1772126;81;20106;-72
2022/03/16 07:52:03;;;;;;;;;;;;;;;1.91;55.71;100780.05;1772073;81;21258;-72
2022/03/16 07:54:31;;;;;;;;;;;;;;;2.16;54.42;100789.41;1772244;81;20093;-63
2022/03/16 07:56:58;;;;;;;;;;;;;;;2.27;53.67;100796.22;1772078;81;20098;-69
2022/03/16 07:59:25;;;;;;;;;;;;;;;2.43;53.28;100793.88;1772106;81;20467;-69
2022/03/16 08:01:53;;;;;;;;;;;;;;;2.49;54.08;100785.64;1772196;81;20113;-69
2022/03/16 08:04:19;;;;;;;;;;;;;;;2.64;53.25;100793.34;1772218;81;21240;-69
2022/03/16 08:06:50;;;;;;;;;;;;;;;2.83;53.19;100791.36;1787242;79;20083;-66
2022/03/16 08:09:19;;;;;;;;;;;;;;;3.03;53.14;100798.59;1835430;77;20083;-72
2022/03/16 08:11:49;;;;;;;;;;;;;;;3.16;51.50;100794.30;1823021;77;20100;-75
2022/03/16 08:14:17;;;;;;;;;;;;;;;3.29;51.41;100795.41;1847888;77;20099;-72
2022/03/16 08:16:44;;;;;;;;;;;;;;;3.43;48.83;100784.30;1810234;78;21172;-66
2022/03/16 08:19:15;;;;;;;;;;;;;;;3.45;49.30;100787.61;1791228;78;20111;-69
2022/03/16 08:21:46;;;;;;;;;;;;;;;3.55;50.12;100784.55;1788460;80;20432;-70
2022/03/16 08:24:16;;;;;;;;;;;;;;;3.81;50.69;100785.08;1760590;80;20096;-67
2022/03/16 08:26:48;;;;;;;;;;;;;;;4.21;48.91;100779.05;1788346;79;20423;-68
2022/03/16 08:29:19;;;;;;;;;;;;;;;4.16;47.20;100784.92;1788183;79;20096;-68
2022/03/16 08:31:49;;;;;;;;;;;;;;;4.03;47.53;100782.52;1797830;79;20155;-70
2022/03/16 08:34:20;;;;;;;;;;;;;;;4.04;49.24;100784.17;1823769;78;20087;-65
2022/03/16 08:36:48;;;;;;;;;;;;;;;4.16;47.63;100791.18;1809839;78;20106;-69
2022/03/16 08:39:19;;;;;;;;;;;;;;;4.24;48.04;100786.71;1777801;80;20451;-69
2022/03/16 08:41:50;;;;;;;;;;;;;;;4.35;47.80;100797.23;1753945;80;20173;-71
2022/03/16 08:44:23;;;;;;;;;;;;;;;4.41;46.10;100796.80;1771115;80;20424;-65
2022/03/16 08:46:50;;;;;;;;;;;;;;;4.56;46.71;100795.17;1779183;80;20084;-69
2022/03/16 08:49:18;;;;;;;;;;;;;;;4.75;45.52;100803.89;1779078;80;20394;-69
2022/03/16 08:51:47;;;;;;;;;;;;;;;4.78;44.68;100810.20;1779127;80;20096;-70
2022/03/16 08:54:14;;;;;;;;;;;;;;;4.75;43.32;100806.62;1778999;80;22047;-66
2022/03/16 08:56:45;;;;;;;;;;;;;;;4.61;42.34;100805.31;1779045;80;20447;-67
2022/03/16 08:59:15;;;;;;;;;;;;;;;4.45;41.11;100809.66;1774418;79;20130;-70
2022/03/16 09:01:52;;;;;;;;;;;;;;;4.34;42.46;100810.54;1779214;80;20080;-69
2022/03/16 09:04:21;;;;;;;;;;;;;;;4.10;41.63;100808.45;1778706;79;20116;-66
2022/03/16 09:06:49;;;;;;;;;;;;;;;4.02;43.02;100815.66;1779126;80;21954;-70
2022/03/16 09:09:19;;;;;;;;;;;;;;;4.16;41.37;100810.20;1779269;80;20436;-75
2022/03/16 09:11:55;;;;;;;;;;;;;;;4.29;42.07;100808.55;1779059;80;20081;-76
2022/03/16 09:14:25;;;;;;;;;;;;;;;4.51;40.11;100818.20;1778676;79;20464;-70
2022/03/16 09:16:52;;;;;;;;;;;;;;;4.51;40.88;100816.02;1808397;79;20109;-71
2022/03/16 09:19:22;;;;;;;;;;;;;;;4.62;39.73;100813.77;1787007;79;20094;-73
2022/03/16 09:21:50;;;;;;;;;;;;;;;4.84;40.54;100807.03;1812496;79;20134;-71
2022/03/16 09:24:24;;;;;;;;;;;;;;;4.94;39.54;100819.45;1812728;79;20182;-68
2022/03/16 09:26:59;;;;;;;;;;;;;;;4.98;38.46;100826.05;1812827;79;20094;-73
2022/03/16 09:29:23;;;;;;;;;;;;;;;5.19;39.97;100818.48;1809177;79;20098;-70
2022/03/16 09:31:54;;;;;;;;;;;;;;;5.61;38.43;100819.33;1724873;82;20638;-68
2022/03/16 09:34:22;;;;;;;;;;;;;;;5.91;36.35;100826.55;1753978;81;20072;-69
2022/03/16 09:36:52;;;;;;;;;;;;;;;5.98;38.13;100819.54;1761125;80;20395;-69
2022/03/16 09:39:36;;;;;;;;;;;;;;;5.91;35.45;100824.36;1748413;81;20112;-77
2022/03/16 09:41:57;;;;;;;;;;;;;;;5.74;35.83;100827.68;1776812;80;20131;-65
2022/03/16 09:44:24;;;;;;;;;;;;;;;5.64;35.89;100825.64;1738341;81;21137;-64
2022/03/16 09:46:54;;;;;;;;;;;;;;;5.71;37.34;100818.64;1755626;81;20440;-70
2022/03/16 09:49:33;;;;;;;;;;;;;;;5.90;36.23;100820.81;1755583;81;20144;-67
2022/03/16 09:52:09;;;;;;;;;;;;;;;6.10;36.09;100827.05;1738305;81;20081;-70
2022/03/16 09:54:41;;;;;;;;;;;;;;;6.04;36.82;100831.33;1754370;81;20116;-72
2022/03/16 09:57:09;;;;;;;;;;;;;;;5.86;37.24;100821.54;1739145;81;22201;-73
2022/03/16 09:59:39;;;;;;;;;;;;;;;5.63;35.97;100825.35;1753028;81;20117;-76
2022/03/16 10:02:12;;;;;;;;;;;;;;;5.64;38.26;100825.64;1755916;81;20401;-75
2022/03/16 10:04:43;;;;;;;;;;;;;;;5.87;35.62;100830.83;1754002;81;20405;-73
2022/03/16 10:07:10;;;;;;;;;;;;;;;6.06;35.86;100828.63;1755233;81;20105;-78
2022/03/16 10:15:14;;;;;;;;;;;;;;;6.42;34.20;100839.91;1761439;80;20120;-71
2022/03/16 10:17:50;;;;;;;;;;;;;;;6.55;34.58;100836.23;1786625;80;20180;-70
2022/03/16 10:20:33;;;;;;;;;;;;;;;6.65;35.38;100842.88;1787094;80;20076;-72
2022/03/16 10:23:10;;;;;;;;;;;;;;;6.48;34.61;100839.71;1786837;80;21191;-69
2022/03/16 10:25:38;;;;;;;;;;;;;;;6.30;37.02;100838.73;1786896;80;20124;-73
2022/03/16 10:28:11;;;;;;;;;;;;;;;6.34;34.38;100843.95;1758788;80;20096;-69
2022/03/16 10:30:53;;;;;;;;;;;;;;;6.31;33.48;100835.46;1787063;80;20116;-68
2022/03/16 10:33:21;;;;;;;;;;;;;;;6.29;35.32;100837.91;1758369;80;20097;-68
2022/03/16 10:36:01;;;;;;;;;;;;;;;6.51;34.18;100845.20;1758860;80;22088;-68
2022/03/16 10:38:28;;;;;;;;;;;;;;;6.45;33.96;100839.41;1758771;80;20128;-68
2022/03/16 10:46:50;;;;;;;;;;;;;;;6.44;33.20;100837.21;1786741;80;20080;-68
2022/03/16 10:49:19;;;;;;;;;;;;;;;6.55;34.76;100836.23;1786715;80;21331;-69
2022/03/16 10:51:45;;;;;;;;;;;;;;;6.62;32.47;100839.58;1786644;80;20084;-71
2022/03/16 10:54:15;;;;;;;;;;;;;;;6.71;33.69;100839.94;1786727;80;20093;-71
2022/03/16 10:56:45;;;;;;;;;;;;;;;6.73;31.35;100841.05;1786809;80;20151;-69
2022/03/16 10:59:12;;;;;;;;;;;;;;;6.68;33.14;100832.81;1786387;80;20168;-71
2022/03/16 11:01:39;;;;;;;;;;;;;;;6.86;32.36;100836.53;1758438;80;21192;-69
2022/03/16 11:04:07;;;;;;;;;;;;;;;6.85;31.04;100833.52;1786578;80;20092;-69
2022/03/16 11:06:36;;;;;;;;;;;;;;;6.67;34.27;100834.72;1786851;80;20120;-69
2022/03/16 11:09:03;;;;;;;;;;;;;;;6.71;32.82;100836.39;1786544;80;20151;-68
2022/03/16 11:14:17;;;;;;;;;;;;;;;6.81;34.14;100836.48;1786742;80;21185;-69
2022/03/16 11:16:46;;;;;;;;;;;;;;;7.00;34.17;100830.89;1786403;80;20119;-69
2022/03/16 11:19:16;;;;;;;;;;;;;;;7.23;33.85;100830.52;1786575;80;20116;-70
2022/03/16 11:21:47;;;;;;;;;;;;;;;7.45;34.32;100829.58;1786422;80;20427;-82
2022/03/16 11:24:17;;;;;;;;;;;;;;;7.51;33.24;100825.80;1786375;80;20139;-72
2022/03/16 11:27:15;;;;;;;;;;;;;;;7.50;32.50;100831.80;1786705;80;21097;-69
2022/03/16 11:30:25;;;;;;;;;;;;;;;7.55;34.80;100825.51;1786450;80;20192;-76
2022/03/16 11:32:48;;;;;;;;;;;;;;;7.80;34.24;100822.91;1786128;80;20434;-72
2022/03/16 11:35:16;;;;;;;;;;;;;;;8.00;32.99;100812.61;1786599;80;20092;-69
2022/03/16 11:37:48;;;;;;;;;;;;;;;8.07;33.49;100815.10;1776850;80;20120;-68
2022/03/16 11:40:22;;;;;;;;;;;;;;;8.06;31.62;100823.84;1748418;81;20084;-68
2022/03/16 11:43:11;;;;;;;;;;;;;;;7.86;32.16;100816.38;1785420;80;20420;-68
2022/03/16 11:45:46;;;;;;;;;;;;;;;7.69;32.13;100823.95;1785219;80;20112;-68
2022/03/16 11:48:34;;;;;;;;;;;;;;;7.76;31.72;100822.34;1776981;80;20454;-67
2022/03/16 11:51:14;;;;;;;;;;;;;;;7.86;32.35;100815.02;1776648;80;20068;-67
2022/03/16 11:56:23;;;;;;;;;;;;;;;7.95;29.99;100803.84;1763069;81;20447;-67
2022/03/16 11:58:52;;;;;;;;;;;;;;;7.97;29.68;100810.95;1771571;81;20081;-67
2022/03/16 12:01:32;;;;;;;;;;;;;;;7.88;28.38;100806.55;1765367;81;20097;-69
2022/03/16 12:04:12;;;;;;;;;;;;;;;7.58;30.33;100818.15;1764109;81;20085;-68
2022/03/16 12:07:06;;;;;;;;;;;;;;;7.43;30.11;100813.99;1765762;81;21169;-69
2022/03/16 12:09:42;;;;;;;;;;;;;;;7.54;32.74;100808.29;1791677;80;20135;-68
2022/03/16 12:15:33;;;;;;;;;;;;;;;7.92;31.46;100806.29;1757571;81;20152;-70
2022/03/16 12:18:14;;;;;;;;;;;;;;;8.07;33.16;100804.16;1758539;81;20169;-67
2022/03/16 12:20:41;;;;;;;;;;;;;;;8.27;30.22;100802.28;1757985;81;21100;-68
2022/03/16 12:23:10;;;;;;;;;;;;;;;8.02;30.68;100802.23;1758120;81;20492;-68
2022/03/16 12:25:39;;;;;;;;;;;;;;;7.85;31.81;100813.37;1756324;81;20486;-67
2022/03/16 12:31:15;;;;;;;;;;;;;;;8.38;31.87;100800.42;1791353;80;20080;-68
2022/03/16 12:33:48;;;;;;;;;;;;;;;8.64;32.61;100810.86;1790315;80;21120;-65
2022/03/16 12:36:16;;;;;;;;;;;;;;;8.87;30.46;100810.85;1791803;80;20439;-66
2022/03/16 12:38:46;;;;;;;;;;;;;;;8.70;30.23;100804.27;1800453;79;20140;-68
2022/03/16 12:44:06;;;;;;;;;;;;;;;8.86;29.45;100810.58;1801351;79;20419;-63
2022/03/16 12:47:00;;;;;;;;;;;;;;;8.99;30.24;100814.14;1800002;79;20150;-70
2022/03/16 12:49:28;;;;;;;;;;;;;;;9.07;31.69;100820.44;1800972;79;20176;-66
2022/03/16 12:52:00;;;;;;;;;;;;;;;9.26;29.81;100821.48;1790470;79;20476;-66
2022/03/16 12:54:31;;;;;;;;;;;;;;;9.11;29.68;100819.34;1777289;79;20388;-68
2022/03/16 12:57:05;;;;;;;;;;;;;;;9.12;30.58;100824.55;1769162;81;20158;-74
2022/03/16 12:59:34;;;;;;;;;;;;;;;9.31;29.39;100823.41;1769750;81;21768;-68
2022/03/16 13:02:04;;;;;;;;;;;;;;;9.41;29.00;100817.91;1769162;81;20468;-72
2022/03/16 13:04:35;;;;;;;;;;;;;;;9.36;31.68;100821.20;1769554;81;20090;-69
2022/03/16 13:07:03;;;;;;;;;;;;;;;9.39;32.21;100821.47;1769197;81;20118;-68
2022/03/16 13:09:36;;;;;;;;;;;;;;;9.53;32.40;100823.91;1769315;81;20109;-68
2022/03/16 13:12:11;;;;;;;;;;;;;;;9.30;31.17;100835.47;1769345;81;21247;-66
2022/03/16 13:14:47;;;;;;;;;;;;;;;8.71;32.64;100836.03;1778095;79;20119;-66
2022/03/16 13:17:16;;;;;;;;;;;;;;;8.59;32.69;100834.13;1795148;80;20120;-67
2022/03/16 13:19:49;;;;;;;;;;;;;;;8.84;30.96;100832.76;1793484;80;20115;-63
2022/03/16 13:22:17;;;;;;;;;;;;;;;8.91;29.56;100836.59;1793659;80;20114;-65
2022/03/16 13:24:51;;;;;;;;;;;;;;;8.78;29.96;100831.11;1774070;81;21117;-64